Peary Spirit — C6YM3 — position and weather

sailwx.info

Track history (hours):
 
Tides and Currents Weather Stations Pressure Air Temp Water Temp Dewpoint Dewpoint Depression Visibility Wind Speed Wind Dir Waves Ship Positions

Peary Spirit

Last reported at 2015-Mar-06 12:33 UTC. Time now 2015-Mar-06 17:38 UTC.
Position N 54°13' W 005°05'.

Length 249 m; draft 13.3 m.

Type: Tanker. MMSI: 311027600.

Date/timePositionNaut miles runAvg speedWind from/ knotsBaromVisibWave heightAir tempDewpointWater temp
2015-Mar-06 12:33N 54°13' W 005°05'1211.8
2015-Mar-06 11:33N 54°25' W 005°05'1111.3
2015-Mar-06 10:33N 54°36' W 005°07'1212.1
2015-Mar-06 09:33N 54°46' W 005°20'1313.0
2015-Mar-06 08:33N 54°56' W 005°34'18510.8
2015-Mar-05 15:24N 58°00' W 006°11'1213.6
2015-Mar-05 14:34N 58°11' W 006°02'1413.7
2015-Mar-05 13:33N 58°24' W 005°55'1211.7
2015-Mar-05 12:33N 58°35' W 005°48'10 9.5
2015-Mar-05 11:33N 58°44' W 005°43'51 6.8
2015-Mar-05 04:07N 59°18' W 004°29'5 8.1
2015-Mar-05 03:33N 59°20' W 004°21'2010.1
2015-Mar-05 01:33N 59°25' W 003°43'  
2015-Mar-02 00:34N 55°25' E 006°31'1514.9
2015-Mar-01 23:34N 55°11' E 006°41'1514.6
2015-Mar-01 22:34N 54°57' E 006°51'1615.9
2015-Mar-01 21:33N 54°43' E 007°02'1313.1
2015-Mar-01 20:33N 54°31' E 007°12'1413.6
2015-Mar-01 19:33N 54°19' E 007°22'1313.5
2015-Mar-01 18:33N 54°11' E 007°40'1313.4
2015-Mar-01 17:33N 54°03' E 007°60'1211.6
2015-Mar-01 16:34N 53°60' E 008°19'1413.8
2015-Mar-01 15:33N 53°55' E 008°41'1414.0
2015-Mar-01 14:33N 53°52' E 009°04'1212.2
2015-Mar-01 13:34N 53°48' E 009°23'1212.5
2015-Mar-01 12:33N 53°37' E 009°34'1110.8
2015-Mar-01 11:34N 53°33' E 009°50'5 4.6
2015-Mar-01 10:31N 53°30' E 009°57'0 0.2
2015-Mar-01 09:32N 53°30' E 009°57'0 0.0
2015-Mar-01 08:31N 53°30' E 009°57'0 0.0
2015-Mar-01 07:32N 53°30' E 009°57'0 0.0
2015-Mar-01 06:32N 53°30' E 009°57'0 0.0
2015-Mar-01 05:31N 53°30' E 009°57'0 0.0
2015-Mar-01 04:32N 53°30' E 009°57'0 0.0
2015-Mar-01 03:32N 53°30' E 009°57'0 0.0
2015-Mar-01 02:31N 53°30' E 009°57'0 0.0
2015-Mar-01 01:29N 53°30' E 009°57'0 0.0
2015-Mar-01 00:31N 53°30' E 009°57'0 0.0
2015-Feb-28 23:32N 53°30' E 009°57'0 0.0
2015-Feb-28 22:32N 53°30' E 009°57'0 0.0
2015-Feb-28 21:31N 53°30' E 009°57'0 0.0
2015-Feb-28 20:31N 53°30' E 009°57'0 0.0
2015-Feb-28 19:31N 53°30' E 009°57'0 0.0
2015-Feb-28 18:32N 53°30' E 009°57'0 0.0
2015-Feb-28 17:31N 53°30' E 009°57'0 0.0
2015-Feb-28 16:31N 53°30' E 009°57'0 0.0
2015-Feb-28 15:31N 53°30' E 009°57'0 0.0
2015-Feb-28 14:31N 53°30' E 009°57'0 0.0
2015-Feb-28 13:31N 53°30' E 009°57'0 0.0
2015-Feb-28 12:32N 53°30' E 009°57'0 0.0
2015-Feb-28 11:31N 53°30' E 009°57'0 0.0
2015-Feb-28 10:31N 53°30' E 009°57'0 0.0
2015-Feb-28 09:28N 53°30' E 009°57'0 0.0
2015-Feb-28 08:31N 53°30' E 009°57'0 0.0
2015-Feb-28 07:31N 53°30' E 009°57'0 0.0
2015-Feb-28 06:31N 53°30' E 009°57'0 0.0
2015-Feb-28 05:28N 53°30' E 009°57'0 0.0
2015-Feb-28 04:28N 53°30' E 009°57'0 0.0
2015-Feb-28 03:31N 53°30' E 009°57'0 0.0
2015-Feb-28 02:31N 53°30' E 009°57'0 0.0
2015-Feb-28 01:31N 53°30' E 009°57'0 0.0
2015-Feb-28 00:28N 53°30' E 009°57'0 0.0
2015-Feb-27 23:25N 53°30' E 009°57'0 0.0
2015-Feb-27 22:33N 53°30' E 009°57'1 0.9
2015-Feb-27 21:33N 53°31' E 009°56'6 6.0
2015-Feb-27 20:33N 53°33' E 009°47'10 9.6
2015-Feb-27 19:33N 53°37' E 009°32'10 9.7
2015-Feb-27 18:33N 53°46' E 009°24'1010.3
2015-Feb-27 17:33N 53°53' E 009°11'1211.8
2015-Feb-27 16:33N 53°50' E 008°52'1312.7
2015-Feb-27 15:33N 53°58' E 008°34'1615.9
2015-Feb-27 14:33N 53°59' E 008°07'1413.8
2015-Feb-27 13:33N 54°05' E 007°46'1414.4
2015-Feb-27 12:33N 54°12' E 007°25'1615.6
2015-Feb-27 11:33N 54°27' E 007°15'1818.0
2015-Feb-27 10:33N 54°43' E 007°03'1212.1
2015-Feb-27 09:33N 54°55' E 006°55'1616.3
2015-Feb-27 08:33N 55°10' E 006°44'1413.5
2015-Feb-27 07:33N 55°22' E 006°35'1313.2
2015-Feb-27 06:33N 55°35' E 006°26'  
Track history (hours):
 
Tides and Currents Weather Stations Pressure Air Temp Water Temp Dewpoint Dewpoint Depression Visibility Wind Speed Wind Dir Waves Ship Positions

Peary Spirit

Last reported at 2015-Mar-06 12:33 UTC. Time now 2015-Mar-06 17:38 UTC.
Position N 54°13' W 005°05'.

Length 249 m; draft 13.3 m.

Type: Tanker. MMSI: 311027600.

Date/timePositionNaut miles runAvg speedWind from/ knotsBaromVisibWave heightAir tempDewpointWater temp
2015-Mar-06 12:33N 54°13' W 005°05'1211.8
2015-Mar-06 11:33N 54°25' W 005°05'1111.3
2015-Mar-06 10:33N 54°36' W 005°07'1212.1
2015-Mar-06 09:33N 54°46' W 005°20'1313.0
2015-Mar-06 08:33N 54°56' W 005°34'18510.8
2015-Mar-05 15:24N 58°00' W 006°11'1213.6
2015-Mar-05 14:34N 58°11' W 006°02'1413.7
2015-Mar-05 13:33N 58°24' W 005°55'1211.7
2015-Mar-05 12:33N 58°35' W 005°48'10 9.5
2015-Mar-05 11:33N 58°44' W 005°43'51 6.8
2015-Mar-05 04:07N 59°18' W 004°29'5 8.1
2015-Mar-05 03:33N 59°20' W 004°21'2010.1
2015-Mar-05 01:33N 59°25' W 003°43'  
2015-Mar-02 00:34N 55°25' E 006°31'1514.9
2015-Mar-01 23:34N 55°11' E 006°41'1514.6
2015-Mar-01 22:34N 54°57' E 006°51'1615.9
2015-Mar-01 21:33N 54°43' E 007°02'1313.1
2015-Mar-01 20:33N 54°31' E 007°12'1413.6
2015-Mar-01 19:33N 54°19' E 007°22'1313.5
2015-Mar-01 18:33N 54°11' E 007°40'1313.4
2015-Mar-01 17:33N 54°03' E 007°60'1211.6
2015-Mar-01 16:34N 53°60' E 008°19'1413.8
2015-Mar-01 15:33N 53°55' E 008°41'1414.0
2015-Mar-01 14:33N 53°52' E 009°04'1212.2
2015-Mar-01 13:34N 53°48' E 009°23'1212.5
2015-Mar-01 12:33N 53°37' E 009°34'1110.8
2015-Mar-01 11:34N 53°33' E 009°50'5 4.6
2015-Mar-01 10:31N 53°30' E 009°57'0 0.2
2015-Mar-01 09:32N 53°30' E 009°57'0 0.0
2015-Mar-01 08:31N 53°30' E 009°57'0 0.0
2015-Mar-01 07:32N 53°30' E 009°57'0 0.0
2015-Mar-01 06:32N 53°30' E 009°57'0 0.0
2015-Mar-01 05:31N 53°30' E 009°57'0 0.0
2015-Mar-01 04:32N 53°30' E 009°57'0 0.0
2015-Mar-01 03:32N 53°30' E 009°57'0 0.0
2015-Mar-01 02:31N 53°30' E 009°57'0 0.0
2015-Mar-01 01:29N 53°30' E 009°57'0 0.0
2015-Mar-01 00:31N 53°30' E 009°57'0 0.0
2015-Feb-28 23:32N 53°30' E 009°57'0 0.0
2015-Feb-28 22:32N 53°30' E 009°57'0 0.0
2015-Feb-28 21:31N 53°30' E 009°57'0 0.0
2015-Feb-28 20:31N 53°30' E 009°57'0 0.0
2015-Feb-28 19:31N 53°30' E 009°57'0 0.0
2015-Feb-28 18:32N 53°30' E 009°57'0 0.0
2015-Feb-28 17:31N 53°30' E 009°57'0 0.0
2015-Feb-28 16:31N 53°30' E 009°57'0 0.0
2015-Feb-28 15:31N 53°30' E 009°57'0 0.0
2015-Feb-28 14:31N 53°30' E 009°57'0 0.0
2015-Feb-28 13:31N 53°30' E 009°57'0 0.0
2015-Feb-28 12:32N 53°30' E 009°57'0 0.0
2015-Feb-28 11:31N 53°30' E 009°57'0 0.0
2015-Feb-28 10:31N 53°30' E 009°57'0 0.0
2015-Feb-28 09:28N 53°30' E 009°57'0 0.0
2015-Feb-28 08:31N 53°30' E 009°57'0 0.0
2015-Feb-28 07:31N 53°30' E 009°57'0 0.0
2015-Feb-28 06:31N 53°30' E 009°57'0 0.0
2015-Feb-28 05:28N 53°30' E 009°57'0 0.0
2015-Feb-28 04:28N 53°30' E 009°57'0 0.0
2015-Feb-28 03:31N 53°30' E 009°57'0 0.0
2015-Feb-28 02:31N 53°30' E 009°57'0 0.0
2015-Feb-28 01:31N 53°30' E 009°57'0 0.0
2015-Feb-28 00:28N 53°30' E 009°57'0 0.0
2015-Feb-27 23:25N 53°30' E 009°57'0 0.0
2015-Feb-27 22:33N 53°30' E 009°57'1 0.9
2015-Feb-27 21:33N 53°31' E 009°56'6 6.0
2015-Feb-27 20:33N 53°33' E 009°47'10 9.6
2015-Feb-27 19:33N 53°37' E 009°32'10 9.7
2015-Feb-27 18:33N 53°46' E 009°24'1010.3
2015-Feb-27 17:33N 53°53' E 009°11'1211.8
2015-Feb-27 16:33N 53°50' E 008°52'1312.7
2015-Feb-27 15:33N 53°58' E 008°34'1615.9
2015-Feb-27 14:33N 53°59' E 008°07'1413.8
2015-Feb-27 13:33N 54°05' E 007°46'1414.4
2015-Feb-27 12:33N 54°12' E 007°25'1615.6
2015-Feb-27 11:33N 54°27' E 007°15'1818.0
2015-Feb-27 10:33N 54°43' E 007°03'1212.1
2015-Feb-27 09:33N 54°55' E 006°55'1616.3
2015-Feb-27 08:33N 55°10' E 006°44'1413.5
2015-Feb-27 07:33N 55°22' E 006°35'1313.2
2015-Feb-27 06:33N 55°35' E 006°26'  

Dump ship's entire track history